createdAt,value
2019-06-08T05:03:50.169Z,22.50
2019-06-08T05:06:18.980Z,22.50
2019-06-08T05:08:49.468Z,22.50
2019-06-08T05:11:19.778Z,22.40
2019-06-08T05:13:49.948Z,22.40
2019-06-08T05:16:19.620Z,22.50
2019-06-08T05:18:49.652Z,22.60
2019-06-08T05:21:19.071Z,22.70
2019-06-08T05:23:53.891Z,22.80
2019-06-08T05:26:18.236Z,23.00
2019-06-08T05:28:49.429Z,23.10
2019-06-08T05:31:19.041Z,23.20
2019-06-08T05:33:48.081Z,23.30
2019-06-08T05:36:16.823Z,23.40
2019-06-08T05:38:45.720Z,23.60
2019-06-08T05:41:14.986Z,23.70
2019-06-08T05:43:45.609Z,23.80
2019-06-08T05:46:14.058Z,23.90
2019-06-08T05:48:44.259Z,23.90
2019-06-08T05:51:13.435Z,24.00
2019-06-08T05:53:42.176Z,24.10
2019-06-08T05:56:11.021Z,24.10
2019-06-08T05:58:39.898Z,24.20
2019-06-08T06:01:08.636Z,24.30
2019-06-08T06:03:37.377Z,24.30
2019-06-08T06:06:06.262Z,24.20
2019-06-08T06:08:34.979Z,24.30
2019-06-08T06:11:04.921Z,24.30
2019-06-08T06:13:33.801Z,24.30
2019-06-08T06:16:03.667Z,24.20
2019-06-08T06:18:32.438Z,24.30
2019-06-08T06:21:10.874Z,24.30
2019-06-08T06:23:33.438Z,24.50
2019-06-08T06:26:03.381Z,24.50
2019-06-08T06:28:32.527Z,24.60
2019-06-08T06:31:01.249Z,24.70
2019-06-08T06:33:30.450Z,24.70
2019-06-08T06:35:59.201Z,24.60
2019-06-08T06:38:28.366Z,24.60
2019-06-08T06:40:57.297Z,24.50
2019-06-08T06:43:26.103Z,24.50
2019-06-08T06:45:54.795Z,24.60
2019-06-08T06:48:24.709Z,24.70
2019-06-08T06:50:53.441Z,24.80
2019-06-08T06:53:22.413Z,24.90
2019-06-08T06:58:33.611Z,25.30
2019-06-08T07:01:02.411Z,25.40
2019-06-08T07:03:32.665Z,25.40
2019-06-08T07:06:01.435Z,25.50
2019-06-08T07:08:30.416Z,25.60
2019-06-08T07:11:01.586Z,25.70
2019-06-08T07:13:31.486Z,25.70
2019-06-08T07:22:21.131Z,25.80
2019-06-08T07:24:52.378Z,25.80
2019-06-08T07:27:20.358Z,25.70
2019-06-08T07:29:49.025Z,25.80
2019-06-08T07:32:17.891Z,25.90
2019-06-08T07:34:47.845Z,25.90
2019-06-08T07:37:18.505Z,25.90
2019-06-08T07:39:48.775Z,25.80
2019-06-08T07:42:18.699Z,25.80
2019-06-08T07:44:48.763Z,25.90
2019-06-08T07:47:18.031Z,25.90
2019-06-08T07:49:47.053Z,25.90
2019-06-08T07:52:15.799Z,25.90
2019-06-08T07:54:44.594Z,26.00
2019-06-08T07:57:13.367Z,26.00
2019-06-08T07:59:42.218Z,26.10
2019-06-08T08:02:11.871Z,26.10
2019-06-08T08:04:41.986Z,26.20
2019-06-08T08:07:10.659Z,26.30
2019-06-08T08:09:39.468Z,26.30
2019-06-08T08:12:12.038Z,26.30
2019-06-08T08:14:39.279Z,26.30
2019-06-08T08:17:08.065Z,26.30
2019-06-08T08:19:36.901Z,26.40
2019-06-08T08:22:22.107Z,26.40
2019-06-08T08:24:38.644Z,26.50
2019-06-08T08:27:08.872Z,26.60
2019-06-08T08:29:38.296Z,26.70
2019-06-08T08:32:07.887Z,26.70
2019-06-08T08:34:38.180Z,26.80
2019-06-08T08:37:09.561Z,26.70
2019-06-08T08:39:37.799Z,26.70
2019-06-08T08:42:08.455Z,26.70
2019-06-08T08:44:37.988Z,26.70
2019-06-08T08:47:07.680Z,26.80
2019-06-08T08:49:38.073Z,26.90
2019-06-08T08:52:08.791Z,26.90
2019-06-08T08:54:37.826Z,26.90
2019-06-08T08:57:08.508Z,26.90
2019-06-08T08:59:38.167Z,27.10
2019-06-08T09:02:08.363Z,27.20
2019-06-08T09:04:38.165Z,27.20
2019-06-08T09:07:10.328Z,27.40
2019-06-08T09:09:38.721Z,27.50
2019-06-08T09:12:08.319Z,27.50
2019-06-08T09:14:38.686Z,27.50
2019-06-08T09:17:08.600Z,27.40
2019-06-08T09:19:38.271Z,27.50
2019-06-08T09:22:08.625Z,27.80
2019-06-08T09:24:39.000Z,28.10
2019-06-08T09:27:08.318Z,28.30
2019-06-08T09:29:38.843Z,28.50
2019-06-08T09:32:09.495Z,28.50
2019-06-08T09:34:38.770Z,28.50
2019-06-08T09:37:08.222Z,28.60
2019-06-08T09:39:39.562Z,28.70
2019-06-08T09:42:09.091Z,28.90
2019-06-08T09:44:38.322Z,29.40
2019-06-08T09:47:12.165Z,29.70
2019-06-08T09:49:38.094Z,29.80
2019-06-08T09:52:08.572Z,29.70
2019-06-08T09:54:38.475Z,29.60
2019-06-08T09:57:09.055Z,29.70
2019-06-08T09:59:39.962Z,30.00
2019-06-08T10:02:12.650Z,30.50
2019-06-08T10:04:40.006Z,31.00
2019-06-08T10:07:09.037Z,31.30
2019-06-08T10:09:38.221Z,31.30
2019-06-08T10:12:09.787Z,31.40
2019-06-08T10:14:38.096Z,31.60
2019-06-08T10:17:08.944Z,31.80
2019-06-08T10:19:37.381Z,32.20
2019-06-08T10:22:08.512Z,32.50
2019-06-08T10:24:38.799Z,32.80
2019-06-08T10:27:08.626Z,32.80
2019-06-08T10:29:38.329Z,32.70
2019-06-08T10:32:28.216Z,32.70
2019-06-08T10:35:02.210Z,32.80
2019-06-08T10:37:29.331Z,32.90
2019-06-08T10:40:00.631Z,33.30
2019-06-08T10:42:28.467Z,33.80
2019-06-08T10:45:02.757Z,34.10
2019-06-08T10:47:29.700Z,34.20
2019-06-08T10:50:04.831Z,34.20
2019-06-08T10:52:28.327Z,34.60
2019-06-08T10:54:59.802Z,34.50
2019-06-08T10:57:28.377Z,34.50
2019-06-08T11:00:28.973Z,34.80
2019-06-08T11:03:01.313Z,34.90
2019-06-08T11:05:28.473Z,34.60
2019-06-08T11:07:59.353Z,35.10
2019-06-08T11:10:27.661Z,35.20
2019-06-08T11:12:58.306Z,34.70
2019-06-08T11:15:29.594Z,34.90
2019-06-08T11:18:00.455Z,35.10
2019-06-08T11:20:30.344Z,34.60
2019-06-08T11:22:59.902Z,33.40
2019-06-08T11:25:28.737Z,33.10
2019-06-08T11:28:01.810Z,33.60
2019-06-08T11:30:33.353Z,34.40
2019-06-08T11:33:03.784Z,34.80
2019-06-08T11:35:32.765Z,34.80
2019-06-08T11:38:02.256Z,34.60
2019-06-08T11:40:31.746Z,34.70
2019-06-08T11:43:00.693Z,34.60
2019-06-08T11:45:31.049Z,34.80
2019-06-08T11:48:02.600Z,35.30
2019-06-08T11:50:42.209Z,35.70
2019-06-08T11:53:14.154Z,36.20
2019-06-08T11:55:41.489Z,36.70
2019-06-08T11:58:13.568Z,37.00
2019-06-08T12:01:09.423Z,36.20
2019-06-08T12:03:38.765Z,35.90
2019-06-08T12:06:09.480Z,36.10
2019-06-08T12:08:38.919Z,36.20
2019-06-08T12:11:10.645Z,36.50
2019-06-08T12:13:38.031Z,37.00
2019-06-08T12:16:09.372Z,37.40
2019-06-08T12:18:40.103Z,38.00
2019-06-08T12:21:09.693Z,38.60
2019-06-08T12:23:40.120Z,39.10
2019-06-08T12:26:10.134Z,38.70
2019-06-08T12:28:41.382Z,37.80
2019-06-08T12:31:16.865Z,37.80
2019-06-08T12:33:40.561Z,38.00
2019-06-08T12:36:13.664Z,38.20
2019-06-08T12:38:39.652Z,38.40
2019-06-08T12:41:11.059Z,38.10
2019-06-08T12:43:39.892Z,37.70
2019-06-08T12:46:11.062Z,37.60
2019-06-08T12:48:40.983Z,37.50
2019-06-08T12:51:12.085Z,36.90
2019-06-08T12:53:40.919Z,36.30
2019-06-08T12:56:12.090Z,36.10
2019-06-08T12:58:41.637Z,36.50
2019-06-08T13:01:11.063Z,36.70
2019-06-08T13:03:40.221Z,36.60
2019-06-08T13:06:09.614Z,37.00
2019-06-08T13:08:39.593Z,37.60
2019-06-08T13:11:09.771Z,37.90
2019-06-08T13:13:40.162Z,37.90
2019-06-08T13:16:08.872Z,37.90
2019-06-08T13:18:40.587Z,37.90
2019-06-08T13:21:21.864Z,37.90
2019-06-08T13:23:41.225Z,37.10
2019-06-08T13:26:10.896Z,37.10
2019-06-08T13:28:40.261Z,37.00
2019-06-08T13:31:11.662Z,36.70
2019-06-08T13:33:40.931Z,36.10
2019-06-08T13:36:10.353Z,36.40
2019-06-08T13:38:39.614Z,36.80
2019-06-08T13:41:08.755Z,37.00
2019-06-08T13:43:40.325Z,37.10
2019-06-08T13:46:08.244Z,37.10
2019-06-08T13:48:38.083Z,37.00
2019-06-08T13:51:08.882Z,36.70
2019-06-08T13:53:38.351Z,36.60
2019-06-08T13:56:07.900Z,37.00
2019-06-08T13:58:38.424Z,37.10
2019-06-08T14:01:10.108Z,36.80
2019-06-08T14:03:39.579Z,36.70
2019-06-08T14:06:08.824Z,36.80
2019-06-08T14:08:38.767Z,36.80
2019-06-08T14:11:08.310Z,36.90
2019-06-08T14:13:41.240Z,37.20
2019-06-08T14:16:11.601Z,37.10
2019-06-08T14:18:41.299Z,37.00
2019-06-08T14:21:10.437Z,37.40
2019-06-08T14:23:41.455Z,38.20
2019-06-08T14:26:10.271Z,37.80
2019-06-08T14:28:39.005Z,37.40
2019-06-08T14:31:10.978Z,37.30
2019-06-08T14:33:39.336Z,37.70
2019-06-08T14:36:09.697Z,38.30
2019-06-08T14:38:41.981Z,38.20
2019-06-08T14:41:08.875Z,38.50
2019-06-08T14:43:39.252Z,38.90
2019-06-08T14:46:08.235Z,38.40
2019-06-08T14:48:37.976Z,37.80
2019-06-08T14:51:08.801Z,36.90
2019-06-08T14:53:38.710Z,35.90
2019-06-08T14:56:08.929Z,35.00
2019-06-08T14:58:38.587Z,34.70
2019-06-08T15:01:07.985Z,34.90
2019-06-08T15:03:37.870Z,35.40
2019-06-08T15:06:07.942Z,35.90
2019-06-08T15:08:37.069Z,36.20
2019-06-08T15:11:08.094Z,36.30
2019-06-08T15:13:40.552Z,36.30
2019-06-08T15:16:08.278Z,36.20
2019-06-08T15:18:38.507Z,36.30
2019-06-08T15:54:12.702Z,30.90
2019-06-08T15:56:48.678Z,30.40
2019-06-08T15:59:12.092Z,29.90
2019-06-08T16:01:40.816Z,29.50
2019-06-08T16:04:10.442Z,29.30
2019-06-08T16:06:39.336Z,29.10
2019-06-08T16:12:11.530Z,29.00
2019-06-08T18:42:01.312Z,25.30
2019-06-08T18:50:40.646Z,25.20
2019-06-08T18:53:09.033Z,25.20
2019-06-08T18:59:07.683Z,25.10
2019-06-08T19:01:39.089Z,25.00
2019-06-08T19:04:07.673Z,24.90
2019-06-08T19:06:39.732Z,24.70
2019-06-08T19:09:12.191Z,24.70
2019-06-08T19:11:40.957Z,24.70
2019-06-08T19:20:09.296Z,24.60
